sensor_id;sensor_type;location;lat;lon;timestamp;temperature;humidity
7307;DHT22;3694;48.732;9.248;2023-03-13T00:01:15;4.60;99.90
7307;DHT22;3694;48.732;9.248;2023-03-13T00:03:40;4.70;99.90
7307;DHT22;3694;48.732;9.248;2023-03-13T00:06:15;4.80;99.90
7307;DHT22;3694;48.732;9.248;2023-03-13T00:08:41;4.90;99.90
7307;DHT22;3694;48.732;9.248;2023-03-13T00:11:09;5.00;99.90
7307;DHT22;3694;48.732;9.248;2023-03-13T00:13:35;5.20;99.90
7307;DHT22;3694;48.732;9.248;2023-03-13T00:16:08;5.30;99.90
7307;DHT22;3694;48.732;9.248;2023-03-13T00:18:34;5.30;99.90
7307;DHT22;3694;48.732;9.248;2023-03-13T00:21:10;5.30;99.90
7307;DHT22;3694;48.732;9.248;2023-03-13T00:23:36;5.30;99.90
7307;DHT22;3694;48.732;9.248;2023-03-13T00:26:05;5.30;99.90
7307;DHT22;3694;48.732;9.248;2023-03-13T00:28:32;5.30;99.90
7307;DHT22;3694;48.732;9.248;2023-03-13T00:33:34;5.40;99.90
7307;DHT22;3694;48.732;9.248;2023-03-13T00:36:01;5.40;99.90
7307;DHT22;3694;48.732;9.248;2023-03-13T00:38:28;5.40;99.90
7307;DHT22;3694;48.732;9.248;2023-03-13T00:40:59;5.50;99.90
7307;DHT22;3694;48.732;9.248;2023-03-13T00:43:24;5.60;99.90
7307;DHT22;3694;48.732;9.248;2023-03-13T00:45:49;5.60;99.90
7307;DHT22;3694;48.732;9.248;2023-03-13T00:48:15;5.60;99.90
7307;DHT22;3694;48.732;9.248;2023-03-13T00:50:40;5.80;99.90
7307;DHT22;3694;48.732;9.248;2023-03-13T00:53:06;5.80;99.90
7307;DHT22;3694;48.732;9.248;2023-03-13T00:55:31;5.80;99.90
7307;DHT22;3694;48.732;9.248;2023-03-13T00:57:57;5.90;99.90
7307;DHT22;3694;48.732;9.248;2023-03-13T01:00:22;5.90;99.90
7307;DHT22;3694;48.732;9.248;2023-03-13T01:02:48;6.00;99.90
7307;DHT22;3694;48.732;9.248;2023-03-13T01:05:14;6.10;99.90
7307;DHT22;3694;48.732;9.248;2023-03-13T01:07:39;6.20;99.90
7307;DHT22;3694;48.732;9.248;2023-03-13T01:10:05;6.20;99.90
7307;DHT22;3694;48.732;9.248;2023-03-13T01:12:40;6.20;99.90
7307;DHT22;3694;48.732;9.248;2023-03-13T01:15:06;6.20;99.90
7307;DHT22;3694;48.732;9.248;2023-03-13T01:17:32;6.30;99.90
7307;DHT22;3694;48.732;9.248;2023-03-13T01:19:58;6.30;99.90
7307;DHT22;3694;48.732;9.248;2023-03-13T01:22:26;6.30;99.90
7307;DHT22;3694;48.732;9.248;2023-03-13T01:24:54;6.30;99.90
7307;DHT22;3694;48.732;9.248;2023-03-13T01:27:20;6.30;99.90
7307;DHT22;3694;48.732;9.248;2023-03-13T01:29:46;6.40;99.90
7307;DHT22;3694;48.732;9.248;2023-03-13T01:32:11;6.30;99.90
7307;DHT22;3694;48.732;9.248;2023-03-13T01:34:37;6.40;99.90
7307;DHT22;3694;48.732;9.248;2023-03-13T01:37:07;6.50;99.90
7307;DHT22;3694;48.732;9.248;2023-03-13T01:39:32;6.40;99.90
7307;DHT22;3694;48.732;9.248;2023-03-13T01:41:58;6.50;99.90
7307;DHT22;3694;48.732;9.248;2023-03-13T01:44:25;6.50;99.90
7307;DHT22;3694;48.732;9.248;2023-03-13T01:46:52;6.50;99.90
7307;DHT22;3694;48.732;9.248;2023-03-13T01:49:30;6.50;99.90
7307;DHT22;3694;48.732;9.248;2023-03-13T01:52:07;6.60;99.90
7307;DHT22;3694;48.732;9.248;2023-03-13T01:54:39;6.60;99.90
7307;DHT22;3694;48.732;9.248;2023-03-13T01:57:30;6.60;99.90
7307;DHT22;3694;48.732;9.248;2023-03-13T02:00:27;6.70;99.90
7307;DHT22;3694;48.732;9.248;2023-03-13T02:02:55;6.70;99.90
7307;DHT22;3694;48.732;9.248;2023-03-13T02:05:24;6.80;99.90
7307;DHT22;3694;48.732;9.248;2023-03-13T02:07:57;6.80;99.90
7307;DHT22;3694;48.732;9.248;2023-03-13T02:10:25;6.80;99.90
7307;DHT22;3694;48.732;9.248;2023-03-13T02:12:51;6.90;99.90
7307;DHT22;3694;48.732;9.248;2023-03-13T02:15:20;6.90;99.90
7307;DHT22;3694;48.732;9.248;2023-03-13T02:17:47;7.00;99.90
7307;DHT22;3694;48.732;9.248;2023-03-13T02:20:15;7.10;99.90
7307;DHT22;3694;48.732;9.248;2023-03-13T02:25:47;7.10;99.90
7307;DHT22;3694;48.732;9.248;2023-03-13T02:28:18;7.10;99.90
7307;DHT22;3694;48.732;9.248;2023-03-13T02:30:46;7.00;99.90
7307;DHT22;3694;48.732;9.248;2023-03-13T02:33:14;7.00;99.90
7307;DHT22;3694;48.732;9.248;2023-03-13T02:35:42;7.10;99.90
7307;DHT22;3694;48.732;9.248;2023-03-13T02:38:10;7.10;99.90
7307;DHT22;3694;48.732;9.248;2023-03-13T02:40:41;7.20;99.90
7307;DHT22;3694;48.732;9.248;2023-03-13T02:43:11;7.70;99.90
7307;DHT22;3694;48.732;9.248;2023-03-13T02:45:38;7.30;99.90
7307;DHT22;3694;48.732;9.248;2023-03-13T02:48:04;7.40;99.90
7307;DHT22;3694;48.732;9.248;2023-03-13T02:50:30;7.50;99.90
7307;DHT22;3694;48.732;9.248;2023-03-13T02:53:04;7.50;99.90
7307;DHT22;3694;48.732;9.248;2023-03-13T02:55:35;7.60;99.90
7307;DHT22;3694;48.732;9.248;2023-03-13T02:58:03;7.60;99.90
7307;DHT22;3694;48.732;9.248;2023-03-13T03:00:29;7.70;99.90
7307;DHT22;3694;48.732;9.248;2023-03-13T03:02:54;7.70;99.90
7307;DHT22;3694;48.732;9.248;2023-03-13T03:05:21;7.80;99.90
7307;DHT22;3694;48.732;9.248;2023-03-13T03:07:47;7.80;99.90
7307;DHT22;3694;48.732;9.248;2023-03-13T03:10:13;7.90;99.90
7307;DHT22;3694;48.732;9.248;2023-03-13T03:12:39;7.90;99.90
7307;DHT22;3694;48.732;9.248;2023-03-13T03:15:05;8.00;99.90
7307;DHT22;3694;48.732;9.248;2023-03-13T03:17:31;8.00;99.90
7307;DHT22;3694;48.732;9.248;2023-03-13T03:19:56;8.20;99.90
7307;DHT22;3694;48.732;9.248;2023-03-13T03:22:22;8.20;99.90
7307;DHT22;3694;48.732;9.248;2023-03-13T03:24:47;8.20;99.90
7307;DHT22;3694;48.732;9.248;2023-03-13T03:27:13;8.20;99.90
7307;DHT22;3694;48.732;9.248;2023-03-13T03:29:38;8.20;99.90
7307;DHT22;3694;48.732;9.248;2023-03-13T03:32:04;8.20;99.90
7307;DHT22;3694;48.732;9.248;2023-03-13T03:34:30;8.10;99.90
7307;DHT22;3694;48.732;9.248;2023-03-13T03:36:55;8.10;99.90
7307;DHT22;3694;48.732;9.248;2023-03-13T03:39:21;8.00;99.90
7307;DHT22;3694;48.732;9.248;2023-03-13T03:41:46;8.00;99.90
7307;DHT22;3694;48.732;9.248;2023-03-13T03:44:12;7.90;99.90
7307;DHT22;3694;48.732;9.248;2023-03-13T03:46:37;7.90;99.90
7307;DHT22;3694;48.732;9.248;2023-03-13T03:49:03;7.80;99.90
7307;DHT22;3694;48.732;9.248;2023-03-13T03:51:28;7.80;99.90
7307;DHT22;3694;48.732;9.248;2023-03-13T03:53:54;8.00;99.90
7307;DHT22;3694;48.732;9.248;2023-03-13T03:56:19;8.00;99.90
7307;DHT22;3694;48.732;9.248;2023-03-13T03:58:45;8.10;99.90
7307;DHT22;3694;48.732;9.248;2023-03-13T04:01:14;8.00;99.90
7307;DHT22;3694;48.732;9.248;2023-03-13T04:03:39;8.10;99.90
7307;DHT22;3694;48.732;9.248;2023-03-13T04:06:05;8.30;99.90
7307;DHT22;3694;48.732;9.248;2023-03-13T04:08:31;8.40;99.90
7307;DHT22;3694;48.732;9.248;2023-03-13T04:10:59;8.60;99.90
7307;DHT22;3694;48.732;9.248;2023-03-13T04:13:26;8.70;99.90
7307;DHT22;3694;48.732;9.248;2023-03-13T04:15:51;8.90;99.90
7307;DHT22;3694;48.732;9.248;2023-03-13T04:18:17;9.10;99.90
7307;DHT22;3694;48.732;9.248;2023-03-13T04:20:42;9.20;99.90
7307;DHT22;3694;48.732;9.248;2023-03-13T04:23:08;9.30;99.90
7307;DHT22;3694;48.732;9.248;2023-03-13T04:25:33;9.40;99.90
7307;DHT22;3694;48.732;9.248;2023-03-13T04:27:59;9.50;99.90
7307;DHT22;3694;48.732;9.248;2023-03-13T04:30:24;9.60;99.90
7307;DHT22;3694;48.732;9.248;2023-03-13T04:32:50;9.70;99.90
7307;DHT22;3694;48.732;9.248;2023-03-13T04:35:16;9.80;99.90
7307;DHT22;3694;48.732;9.248;2023-03-13T04:37:42;9.90;99.90
7307;DHT22;3694;48.732;9.248;2023-03-13T04:40:11;10.00;99.90
7307;DHT22;3694;48.732;9.248;2023-03-13T04:42:38;10.10;99.90
7307;DHT22;3694;48.732;9.248;2023-03-13T04:45:04;10.10;99.90
7307;DHT22;3694;48.732;9.248;2023-03-13T04:47:30;10.10;99.90
7307;DHT22;3694;48.732;9.248;2023-03-13T04:49:55;10.10;99.90
7307;DHT22;3694;48.732;9.248;2023-03-13T04:52:21;10.10;99.90
7307;DHT22;3694;48.732;9.248;2023-03-13T04:54:46;10.10;99.90
7307;DHT22;3694;48.732;9.248;2023-03-13T04:57:12;10.10;99.90
7307;DHT22;3694;48.732;9.248;2023-03-13T04:59:38;10.10;99.90
7307;DHT22;3694;48.732;9.248;2023-03-13T05:02:03;10.10;99.90
7307;DHT22;3694;48.732;9.248;2023-03-13T05:04:29;10.10;99.90
7307;DHT22;3694;48.732;9.248;2023-03-13T05:06:55;10.10;99.90
7307;DHT22;3694;48.732;9.248;2023-03-13T05:09:21;10.10;99.90
7307;DHT22;3694;48.732;9.248;2023-03-13T05:11:46;10.10;99.90
7307;DHT22;3694;48.732;9.248;2023-03-13T05:14:12;10.20;99.90
7307;DHT22;3694;48.732;9.248;2023-03-13T05:16:38;10.20;99.90
7307;DHT22;3694;48.732;9.248;2023-03-13T05:19:03;10.20;99.90
7307;DHT22;3694;48.732;9.248;2023-03-13T05:21:29;10.10;99.90
7307;DHT22;3694;48.732;9.248;2023-03-13T05:23:54;10.20;99.90
7307;DHT22;3694;48.732;9.248;2023-03-13T05:26:20;10.30;99.90
7307;DHT22;3694;48.732;9.248;2023-03-13T05:28:46;10.30;99.90
7307;DHT22;3694;48.732;9.248;2023-03-13T05:31:11;10.30;99.90
7307;DHT22;3694;48.732;9.248;2023-03-13T05:33:37;10.30;99.90
7307;DHT22;3694;48.732;9.248;2023-03-13T05:36:02;10.30;99.90
7307;DHT22;3694;48.732;9.248;2023-03-13T05:38:28;10.30;99.90
7307;DHT22;3694;48.732;9.248;2023-03-13T05:40:53;10.30;99.90
7307;DHT22;3694;48.732;9.248;2023-03-13T05:43:19;10.30;99.90
7307;DHT22;3694;48.732;9.248;2023-03-13T05:45:44;10.40;99.90
7307;DHT22;3694;48.732;9.248;2023-03-13T05:48:10;10.40;99.90
7307;DHT22;3694;48.732;9.248;2023-03-13T05:50:35;10.40;99.90
7307;DHT22;3694;48.732;9.248;2023-03-13T05:53:01;10.50;99.90
7307;DHT22;3694;48.732;9.248;2023-03-13T05:55:26;10.50;99.90
7307;DHT22;3694;48.732;9.248;2023-03-13T05:57:52;10.50;99.90
7307;DHT22;3694;48.732;9.248;2023-03-13T06:00:17;10.50;99.90
7307;DHT22;3694;48.732;9.248;2023-03-13T06:02:46;10.40;99.90
7307;DHT22;3694;48.732;9.248;2023-03-13T06:05:12;10.40;99.90
7307;DHT22;3694;48.732;9.248;2023-03-13T06:07:37;10.40;99.90
7307;DHT22;3694;48.732;9.248;2023-03-13T06:10:03;10.40;99.90
7307;DHT22;3694;48.732;9.248;2023-03-13T06:12:30;10.30;99.90
7307;DHT22;3694;48.732;9.248;2023-03-13T06:14:56;10.40;99.90
7307;DHT22;3694;48.732;9.248;2023-03-13T06:17:21;10.40;99.90
7307;DHT22;3694;48.732;9.248;2023-03-13T06:19:47;10.60;99.90
7307;DHT22;3694;48.732;9.248;2023-03-13T06:22:12;10.60;99.90
7307;DHT22;3694;48.732;9.248;2023-03-13T06:24:40;10.60;99.90
7307;DHT22;3694;48.732;9.248;2023-03-13T06:27:06;10.70;99.90
7307;DHT22;3694;48.732;9.248;2023-03-13T06:29:31;10.80;99.90
7307;DHT22;3694;48.732;9.248;2023-03-13T06:31:57;10.80;99.90
7307;DHT22;3694;48.732;9.248;2023-03-13T06:34:22;10.90;99.90
7307;DHT22;3694;48.732;9.248;2023-03-13T06:36:48;11.00;99.90
7307;DHT22;3694;48.732;9.248;2023-03-13T06:39:13;11.00;99.90
7307;DHT22;3694;48.732;9.248;2023-03-13T06:41:39;11.10;99.90
7307;DHT22;3694;48.732;9.248;2023-03-13T06:44:04;11.20;99.90
7307;DHT22;3694;48.732;9.248;2023-03-13T06:46:30;11.20;99.90
7307;DHT22;3694;48.732;9.248;2023-03-13T06:48:57;11.30;99.90
7307;DHT22;3694;48.732;9.248;2023-03-13T06:51:23;11.40;99.90
7307;DHT22;3694;48.732;9.248;2023-03-13T06:53:50;11.40;99.90
7307;DHT22;3694;48.732;9.248;2023-03-13T06:56:16;11.50;99.90
7307;DHT22;3694;48.732;9.248;2023-03-13T06:58:45;11.50;99.90
7307;DHT22;3694;48.732;9.248;2023-03-13T07:01:13;11.60;99.90
7307;DHT22;3694;48.732;9.248;2023-03-13T07:03:40;11.50;99.90
7307;DHT22;3694;48.732;9.248;2023-03-13T07:06:06;11.50;99.90
7307;DHT22;3694;48.732;9.248;2023-03-13T07:08:33;11.50;99.90
7307;DHT22;3694;48.732;9.248;2023-03-13T07:11:01;11.40;99.90
7307;DHT22;3694;48.732;9.248;2023-03-13T07:13:27;11.40;99.90
7307;DHT22;3694;48.732;9.248;2023-03-13T07:15:53;11.50;99.90
7307;DHT22;3694;48.732;9.248;2023-03-13T07:18:19;11.50;99.90
7307;DHT22;3694;48.732;9.248;2023-03-13T07:20:51;11.50;99.90
7307;DHT22;3694;48.732;9.248;2023-03-13T07:23:18;11.50;99.90
7307;DHT22;3694;48.732;9.248;2023-03-13T07:25:54;11.50;99.90
7307;DHT22;3694;48.732;9.248;2023-03-13T07:28:20;11.50;99.90
7307;DHT22;3694;48.732;9.248;2023-03-13T07:30:46;11.50;99.90
7307;DHT22;3694;48.732;9.248;2023-03-13T07:33:12;11.60;99.90
7307;DHT22;3694;48.732;9.248;2023-03-13T07:35:37;11.60;99.90
7307;DHT22;3694;48.732;9.248;2023-03-13T07:38:03;11.70;99.90
7307;DHT22;3694;48.732;9.248;2023-03-13T07:40:28;11.70;99.90
7307;DHT22;3694;48.732;9.248;2023-03-13T07:42:54;11.70;99.90
7307;DHT22;3694;48.732;9.248;2023-03-13T07:45:19;11.70;99.90
7307;DHT22;3694;48.732;9.248;2023-03-13T07:47:45;11.70;99.90
7307;DHT22;3694;48.732;9.248;2023-03-13T07:50:11;11.70;99.90
7307;DHT22;3694;48.732;9.248;2023-03-13T07:52:36;11.80;99.90
7307;DHT22;3694;48.732;9.248;2023-03-13T07:55:02;11.80;99.90
7307;DHT22;3694;48.732;9.248;2023-03-13T07:57:27;11.90;99.90
7307;DHT22;3694;48.732;9.248;2023-03-13T07:59:53;11.90;99.90
7307;DHT22;3694;48.732;9.248;2023-03-13T08:02:18;11.90;99.90
7307;DHT22;3694;48.732;9.248;2023-03-13T08:04:44;11.90;99.90
7307;DHT22;3694;48.732;9.248;2023-03-13T08:07:10;12.00;99.90
7307;DHT22;3694;48.732;9.248;2023-03-13T08:09:36;12.00;99.90
7307;DHT22;3694;48.732;9.248;2023-03-13T08:12:01;12.20;99.90
7307;DHT22;3694;48.732;9.248;2023-03-13T08:14:27;12.20;99.90
7307;DHT22;3694;48.732;9.248;2023-03-13T08:16:53;12.30;99.90
7307;DHT22;3694;48.732;9.248;2023-03-13T08:19:18;12.40;99.90
7307;DHT22;3694;48.732;9.248;2023-03-13T08:21:44;12.60;99.90
7307;DHT22;3694;48.732;9.248;2023-03-13T08:24:10;12.70;99.90
7307;DHT22;3694;48.732;9.248;2023-03-13T08:26:38;12.90;99.90
7307;DHT22;3694;48.732;9.248;2023-03-13T08:29:07;13.00;99.90
7307;DHT22;3694;48.732;9.248;2023-03-13T08:31:47;13.30;99.90
7307;DHT22;3694;48.732;9.248;2023-03-13T08:34:14;13.50;99.90
7307;DHT22;3694;48.732;9.248;2023-03-13T08:36:41;13.60;99.90
7307;DHT22;3694;48.732;9.248;2023-03-13T08:39:14;13.70;99.90
7307;DHT22;3694;48.732;9.248;2023-03-13T08:41:40;13.90;99.90
7307;DHT22;3694;48.732;9.248;2023-03-13T08:44:08;13.90;99.80
7307;DHT22;3694;48.732;9.248;2023-03-13T08:46:35;14.00;99.40
7307;DHT22;3694;48.732;9.248;2023-03-13T08:49:02;14.10;99.50
7307;DHT22;3694;48.732;9.248;2023-03-13T08:51:28;14.00;99.30
7307;DHT22;3694;48.732;9.248;2023-03-13T08:53:54;13.80;99.40
7307;DHT22;3694;48.732;9.248;2023-03-13T08:56:23;13.80;99.40
7307;DHT22;3694;48.732;9.248;2023-03-13T08:58:50;13.80;99.50
7307;DHT22;3694;48.732;9.248;2023-03-13T09:01:15;13.80;99.40
7307;DHT22;3694;48.732;9.248;2023-03-13T09:03:41;13.70;99.40
7307;DHT22;3694;48.732;9.248;2023-03-13T09:06:08;13.80;99.40
7307;DHT22;3694;48.732;9.248;2023-03-13T09:08:35;13.80;99.30
7307;DHT22;3694;48.732;9.248;2023-03-13T09:11:03;13.90;99.40
7307;DHT22;3694;48.732;9.248;2023-03-13T09:13:32;13.90;99.30
7307;DHT22;3694;48.732;9.248;2023-03-13T09:15:58;13.80;99.50
7307;DHT22;3694;48.732;9.248;2023-03-13T09:18:25;14.00;99.20
7307;DHT22;3694;48.732;9.248;2023-03-13T09:20:51;14.00;99.10
7307;DHT22;3694;48.732;9.248;2023-03-13T09:23:17;14.00;99.00
7307;DHT22;3694;48.732;9.248;2023-03-13T09:25:43;14.00;98.80
7307;DHT22;3694;48.732;9.248;2023-03-13T09:28:11;14.00;98.70
7307;DHT22;3694;48.732;9.248;2023-03-13T09:30:37;14.00;98.80
7307;DHT22;3694;48.732;9.248;2023-03-13T09:33:03;14.20;98.80
7307;DHT22;3694;48.732;9.248;2023-03-13T09:35:29;14.20;98.40
7307;DHT22;3694;48.732;9.248;2023-03-13T09:37:54;14.30;98.40
7307;DHT22;3694;48.732;9.248;2023-03-13T09:40:22;14.50;98.40
7307;DHT22;3694;48.732;9.248;2023-03-13T09:42:51;14.50;98.20
7307;DHT22;3694;48.732;9.248;2023-03-13T09:45:39;14.60;98.20
7307;DHT22;3694;48.732;9.248;2023-03-13T09:48:29;14.70;98.20
7307;DHT22;3694;48.732;9.248;2023-03-13T09:51:16;14.70;98.10
7307;DHT22;3694;48.732;9.248;2023-03-13T09:56:23;14.80;97.80
7307;DHT22;3694;48.732;9.248;2023-03-13T09:58:54;14.80;97.60
7307;DHT22;3694;48.732;9.248;2023-03-13T10:01:25;15.00;97.80
7307;DHT22;3694;48.732;9.248;2023-03-13T10:04:07;15.30;97.30
7307;DHT22;3694;48.732;9.248;2023-03-13T10:06:42;15.40;97.00
7307;DHT22;3694;48.732;9.248;2023-03-13T10:09:22;15.40;96.90
7307;DHT22;3694;48.732;9.248;2023-03-13T10:17:47;15.80;96.10
7307;DHT22;3694;48.732;9.248;2023-03-13T10:22:54;16.40;95.20
7307;DHT22;3694;48.732;9.248;2023-03-13T10:25:27;16.30;95.00
7307;DHT22;3694;48.732;9.248;2023-03-13T10:27:55;16.40;94.90
7307;DHT22;3694;48.732;9.248;2023-03-13T10:30:26;16.40;95.00
7307;DHT22;3694;48.732;9.248;2023-03-13T10:35:38;16.00;94.10
7307;DHT22;3694;48.732;9.248;2023-03-13T10:38:17;16.10;94.30
7307;DHT22;3694;48.732;9.248;2023-03-13T10:40:43;16.30;94.50
7307;DHT22;3694;48.732;9.248;2023-03-13T10:43:21;16.50;93.80
7307;DHT22;3694;48.732;9.248;2023-03-13T10:45:47;16.30;93.70
7307;DHT22;3694;48.732;9.248;2023-03-13T10:48:18;16.20;93.90
7307;DHT22;3694;48.732;9.248;2023-03-13T10:50:45;16.50;94.30
7307;DHT22;3694;48.732;9.248;2023-03-13T10:56:13;16.80;93.90
7307;DHT22;3694;48.732;9.248;2023-03-13T11:03:50;16.80;93.10
7307;DHT22;3694;48.732;9.248;2023-03-13T11:06:32;16.80;93.20
7307;DHT22;3694;48.732;9.248;2023-03-13T11:09:18;16.90;93.20
7307;DHT22;3694;48.732;9.248;2023-03-13T11:11:55;17.30;93.70
7307;DHT22;3694;48.732;9.248;2023-03-13T11:14:25;17.70;93.10
7307;DHT22;3694;48.732;9.248;2023-03-13T11:19:42;17.90;92.40
7307;DHT22;3694;48.732;9.248;2023-03-13T11:28:27;17.80;92.20
7307;DHT22;3694;48.732;9.248;2023-03-13T11:36:02;18.30;92.10
7307;DHT22;3694;48.732;9.248;2023-03-13T11:38:40;18.60;91.10
7307;DHT22;3694;48.732;9.248;2023-03-13T11:44:15;18.60;91.40
7307;DHT22;3694;48.732;9.248;2023-03-13T11:46:56;18.50;90.70
7307;DHT22;3694;48.732;9.248;2023-03-13T12:00:39;18.30;90.10
7307;DHT22;3694;48.732;9.248;2023-03-13T12:03:26;18.30;90.10
7307;DHT22;3694;48.732;9.248;2023-03-13T12:05:56;18.30;90.60
7307;DHT22;3694;48.732;9.248;2023-03-13T12:08:40;18.50;90.80
7307;DHT22;3694;48.732;9.248;2023-03-13T12:11:25;18.80;90.50
7307;DHT22;3694;48.732;9.248;2023-03-13T12:14:08;18.80;90.00
7307;DHT22;3694;48.732;9.248;2023-03-13T12:16:43;18.70;88.10
7307;DHT22;3694;48.732;9.248;2023-03-13T12:19:14;18.70;88.40
7307;DHT22;3694;48.732;9.248;2023-03-13T12:21:49;18.70;89.60
7307;DHT22;3694;48.732;9.248;2023-03-13T12:24:32;18.80;89.00
7307;DHT22;3694;48.732;9.248;2023-03-13T12:27:17;18.90;88.10
7307;DHT22;3694;48.732;9.248;2023-03-13T12:29:50;19.10;87.60
7307;DHT22;3694;48.732;9.248;2023-03-13T12:32:37;19.10;87.70
7307;DHT22;3694;48.732;9.248;2023-03-13T12:35:17;19.10;86.70
7307;DHT22;3694;48.732;9.248;2023-03-13T12:43:39;19.40;87.10
7307;DHT22;3694;48.732;9.248;2023-03-13T12:46:21;19.40;85.10
7307;DHT22;3694;48.732;9.248;2023-03-13T12:49:11;19.50;84.50
7307;DHT22;3694;48.732;9.248;2023-03-13T13:00:01;20.00;82.40
7307;DHT22;3694;48.732;9.248;2023-03-13T13:02:31;20.10;82.00
7307;DHT22;3694;48.732;9.248;2023-03-13T13:04:59;20.20;80.90
7307;DHT22;3694;48.732;9.248;2023-03-13T13:07:33;20.30;80.80
7307;DHT22;3694;48.732;9.248;2023-03-13T13:12:38;20.60;80.70
7307;DHT22;3694;48.732;9.248;2023-03-13T13:15:19;20.60;79.40
7307;DHT22;3694;48.732;9.248;2023-03-13T13:20:33;20.60;78.80
7307;DHT22;3694;48.732;9.248;2023-03-13T13:25:51;20.80;78.00
7307;DHT22;3694;48.732;9.248;2023-03-13T13:30:52;20.70;78.50
7307;DHT22;3694;48.732;9.248;2023-03-13T13:35:44;20.70;77.40
7307;DHT22;3694;48.732;9.248;2023-03-13T13:43:30;20.60;77.70
7307;DHT22;3694;48.732;9.248;2023-03-13T13:46:17;20.60;77.30
7307;DHT22;3694;48.732;9.248;2023-03-13T13:48:45;20.70;78.10
7307;DHT22;3694;48.732;9.248;2023-03-13T13:53:49;20.70;76.30
7307;DHT22;3694;48.732;9.248;2023-03-13T13:56:33;20.60;76.80
7307;DHT22;3694;48.732;9.248;2023-03-13T13:59:02;20.60;76.20
7307;DHT22;3694;48.732;9.248;2023-03-13T14:01:29;20.30;74.90
7307;DHT22;3694;48.732;9.248;2023-03-13T14:04:11;20.00;75.40
7307;DHT22;3694;48.732;9.248;2023-03-13T14:06:38;20.10;76.80
7307;DHT22;3694;48.732;9.248;2023-03-13T14:15:06;19.90;75.40
7307;DHT22;3694;48.732;9.248;2023-03-13T14:17:38;20.10;77.00
7307;DHT22;3694;48.732;9.248;2023-03-13T14:20:05;20.20;76.30
7307;DHT22;3694;48.732;9.248;2023-03-13T14:22:47;20.40;75.90
7307;DHT22;3694;48.732;9.248;2023-03-13T14:25:13;20.40;75.90
7307;DHT22;3694;48.732;9.248;2023-03-13T14:27:42;20.30;75.70
7307;DHT22;3694;48.732;9.248;2023-03-13T14:30:09;20.20;75.80
7307;DHT22;3694;48.732;9.248;2023-03-13T14:32:36;20.30;76.60
7307;DHT22;3694;48.732;9.248;2023-03-13T14:35:03;20.20;76.00
7307;DHT22;3694;48.732;9.248;2023-03-13T14:37:43;20.70;76.30
7307;DHT22;3694;48.732;9.248;2023-03-13T14:40:24;21.10;75.30
7307;DHT22;3694;48.732;9.248;2023-03-13T14:42:58;21.20;76.40
7307;DHT22;3694;48.732;9.248;2023-03-13T14:45:28;21.20;74.00
7307;DHT22;3694;48.732;9.248;2023-03-13T14:48:11;21.20;73.40
7307;DHT22;3694;48.732;9.248;2023-03-13T14:50:38;21.20;73.90
7307;DHT22;3694;48.732;9.248;2023-03-13T14:53:17;21.10;74.20
7307;DHT22;3694;48.732;9.248;2023-03-13T14:55:44;21.00;73.90
7307;DHT22;3694;48.732;9.248;2023-03-13T15:00:45;20.70;74.40
7307;DHT22;3694;48.732;9.248;2023-03-13T15:05:42;20.60;73.90
7307;DHT22;3694;48.732;9.248;2023-03-13T15:08:16;20.60;74.40
7307;DHT22;3694;48.732;9.248;2023-03-13T15:10:42;20.40;74.50
7307;DHT22;3694;48.732;9.248;2023-03-13T15:13:15;20.40;74.80
7307;DHT22;3694;48.732;9.248;2023-03-13T15:15:41;20.40;75.00
7307;DHT22;3694;48.732;9.248;2023-03-13T15:18:21;20.50;74.80
7307;DHT22;3694;48.732;9.248;2023-03-13T15:20:52;20.20;74.30
7307;DHT22;3694;48.732;9.248;2023-03-13T15:23:19;20.00;74.30
7307;DHT22;3694;48.732;9.248;2023-03-13T15:25:48;20.00;74.90
7307;DHT22;3694;48.732;9.248;2023-03-13T15:28:16;19.80;74.60
7307;DHT22;3694;48.732;9.248;2023-03-13T15:30:43;19.70;74.90
7307;DHT22;3694;48.732;9.248;2023-03-13T15:33:16;19.70;74.60
7307;DHT22;3694;48.732;9.248;2023-03-13T15:35:43;19.80;74.60
7307;DHT22;3694;48.732;9.248;2023-03-13T15:38:18;19.60;74.90
7307;DHT22;3694;48.732;9.248;2023-03-13T15:40:44;19.50;75.00
7307;DHT22;3694;48.732;9.248;2023-03-13T15:43:10;19.40;74.90
7307;DHT22;3694;48.732;9.248;2023-03-13T15:45:37;19.30;75.50
7307;DHT22;3694;48.732;9.248;2023-03-13T15:48:20;19.20;75.60
7307;DHT22;3694;48.732;9.248;2023-03-13T15:50:49;19.10;76.00
7307;DHT22;3694;48.732;9.248;2023-03-13T15:53:16;19.00;75.90
7307;DHT22;3694;48.732;9.248;2023-03-13T15:55:42;19.00;76.40
7307;DHT22;3694;48.732;9.248;2023-03-13T15:58:09;19.00;76.50
7307;DHT22;3694;48.732;9.248;2023-03-13T16:00:35;19.00;77.00
7307;DHT22;3694;48.732;9.248;2023-03-13T16:03:01;19.00;76.50
7307;DHT22;3694;48.732;9.248;2023-03-13T16:05:26;18.90;77.20
7307;DHT22;3694;48.732;9.248;2023-03-13T16:07:53;18.80;77.10
7307;DHT22;3694;48.732;9.248;2023-03-13T16:10:26;18.80;76.90
7307;DHT22;3694;48.732;9.248;2023-03-13T16:12:52;18.90;77.30
7307;DHT22;3694;48.732;9.248;2023-03-13T16:15:18;18.60;77.40
7307;DHT22;3694;48.732;9.248;2023-03-13T16:17:44;18.50;77.70
7307;DHT22;3694;48.732;9.248;2023-03-13T16:20:21;18.40;77.80
7307;DHT22;3694;48.732;9.248;2023-03-13T16:22:48;18.40;77.70
7307;DHT22;3694;48.732;9.248;2023-03-13T16:25:17;18.40;78.20
7307;DHT22;3694;48.732;9.248;2023-03-13T16:27:43;18.40;78.20
7307;DHT22;3694;48.732;9.248;2023-03-13T16:30:15;18.30;77.60
7307;DHT22;3694;48.732;9.248;2023-03-13T16:32:42;18.10;78.40
7307;DHT22;3694;48.732;9.248;2023-03-13T16:35:07;17.90;78.40
7307;DHT22;3694;48.732;9.248;2023-03-13T16:37:33;17.70;78.80
7307;DHT22;3694;48.732;9.248;2023-03-13T16:39:58;17.50;78.90
7307;DHT22;3694;48.732;9.248;2023-03-13T16:42:24;17.40;79.00
7307;DHT22;3694;48.732;9.248;2023-03-13T16:44:50;17.30;79.00
7307;DHT22;3694;48.732;9.248;2023-03-13T16:49:43;17.10;79.30
7307;DHT22;3694;48.732;9.248;2023-03-13T16:52:14;17.00;79.80
7307;DHT22;3694;48.732;9.248;2023-03-13T16:54:41;16.90;80.40
7307;DHT22;3694;48.732;9.248;2023-03-13T16:57:22;16.80;80.50
7307;DHT22;3694;48.732;9.248;2023-03-13T16:59:49;16.60;80.50
7307;DHT22;3694;48.732;9.248;2023-03-13T17:02:16;16.50;80.70
7307;DHT22;3694;48.732;9.248;2023-03-13T17:04:43;16.40;81.20
7307;DHT22;3694;48.732;9.248;2023-03-13T17:07:15;16.30;81.50
7307;DHT22;3694;48.732;9.248;2023-03-13T17:09:41;16.10;82.20
7307;DHT22;3694;48.732;9.248;2023-03-13T17:12:07;15.80;82.70
7307;DHT22;3694;48.732;9.248;2023-03-13T17:14:32;15.60;83.50
7307;DHT22;3694;48.732;9.248;2023-03-13T17:16:58;15.40;84.80
7307;DHT22;3694;48.732;9.248;2023-03-13T17:19:23;15.30;85.80
7307;DHT22;3694;48.732;9.248;2023-03-13T17:21:49;15.00;86.80
7307;DHT22;3694;48.732;9.248;2023-03-13T17:24:14;14.90;88.10
7307;DHT22;3694;48.732;9.248;2023-03-13T17:26:40;14.80;89.20
7307;DHT22;3694;48.732;9.248;2023-03-13T17:29:07;14.70;90.30
7307;DHT22;3694;48.732;9.248;2023-03-13T17:31:34;14.50;90.90
7307;DHT22;3694;48.732;9.248;2023-03-13T17:34:05;14.50;91.20
7307;DHT22;3694;48.732;9.248;2023-03-13T17:36:31;14.40;91.80
7307;DHT22;3694;48.732;9.248;2023-03-13T17:38:58;14.40;92.20
7307;DHT22;3694;48.732;9.248;2023-03-13T17:41:26;14.30;92.40
7307;DHT22;3694;48.732;9.248;2023-03-13T17:43:52;14.30;92.60
7307;DHT22;3694;48.732;9.248;2023-03-13T17:46:20;14.30;92.90
7307;DHT22;3694;48.732;9.248;2023-03-13T17:48:52;14.30;93.10
7307;DHT22;3694;48.732;9.248;2023-03-13T17:51:25;14.30;93.10
7307;DHT22;3694;48.732;9.248;2023-03-13T17:53:52;14.40;93.20
7307;DHT22;3694;48.732;9.248;2023-03-13T17:56:23;14.40;93.00
7307;DHT22;3694;48.732;9.248;2023-03-13T17:58:51;14.40;93.10
7307;DHT22;3694;48.732;9.248;2023-03-13T18:01:20;14.50;93.20